Portada
METAR-TAF:

METAR-TAF

Aeroports :

Oostende, Bèlgica

latitud: 51-12N, longitud: 002-52E, altitud: 4 m

Observació

L'informe es va fer fa 42 minuts, a les 14:50 UTC
Vent 7 kt del Nord, variant entre Nord/Nord-Oest i Nord-Est
Temperatura 18°C
Humitat 56%
Pressió 1035 hPa
Visibilitat 10 km o més
Escasses núvols a una alçada de 3200 ft

METAR: EBOS 251450Z 36007KT 330V040 9999 FEW032 18/09 Q1035 NOSIG

Hora: 17:32 (15:32 UTC)

Pronòstic

L'informe es va fer fa 4 hores i 32 minuts, a les 11:00 UTC
Pronòstic vàlid del 25 a les 12 UTC al 26 a les 18 UTC
Vent 7 kt del Nord
Visibilitat 10 km o més
Escasses núvols a una alçada de 3500 ft
Probabilitat 30% :
Temporalment
l' 26 a les 00 UTC al 26 a les 06 UTC
Visibilitat: 0500 m
boira

TAF: EBOS 251100Z 2512/2618 36007KT 9999 FEW035 PROB30 TEMPO 2600/2606 0500 FG

Observacions i pronòstics meteorològics de més de 4000 aeroports (METAR i TAF).

Les estacions disponibles són els punts grocs i vermells al mapa.

Posi el ratolí al punt desitjat per veure el nom de l'estació.

Feu clic per veure les observacions i els pronòstics meteorològics.

Per canviar el mapa: feu clic els botons verds amb una creu de color negre per apropar; al botó verd amb un guió per allunyar la imatge; o en les fletxes verdes per a mapes adjacents.


METAR-TAF: